createdAt,value
2019-05-10T00:00:19.543Z,11.90
2019-05-10T00:03:06.373Z,12.00
2019-05-10T00:05:53.129Z,12.00
2019-05-10T00:08:40.039Z,12.00
2019-05-10T00:11:31.229Z,11.90
2019-05-10T00:14:11.570Z,11.90
2019-05-10T00:16:40.742Z,11.90
2019-05-10T00:19:10.106Z,11.90
2019-05-10T00:21:39.266Z,11.90
2019-05-10T00:24:08.402Z,11.90
2019-05-10T00:26:37.458Z,11.70
2019-05-10T00:29:06.711Z,11.80
2019-05-10T00:31:36.288Z,11.80
2019-05-10T00:34:05.455Z,11.80
2019-05-10T00:36:34.785Z,11.80
2019-05-10T00:39:05.462Z,11.80
2019-05-10T00:41:34.648Z,11.80
2019-05-10T00:44:03.793Z,11.70
2019-05-10T00:46:33.007Z,11.70
2019-05-10T00:49:02.414Z,11.70
2019-05-10T00:51:31.641Z,11.70
2019-05-10T00:54:01.063Z,11.70
2019-05-10T00:56:30.360Z,11.70
2019-05-10T00:58:59.612Z,11.80
2019-05-10T01:01:28.864Z,11.80
2019-05-10T01:03:57.976Z,11.80
2019-05-10T01:06:27.110Z,11.90
2019-05-10T01:08:56.607Z,11.80
2019-05-10T01:11:26.055Z,11.80
2019-05-10T01:13:55.414Z,11.80
2019-05-10T01:16:24.724Z,11.70
2019-05-10T01:18:53.911Z,11.70
2019-05-10T01:21:23.050Z,11.70
2019-05-10T01:23:52.267Z,11.60
2019-05-10T01:26:21.483Z,11.70
2019-05-10T01:28:50.626Z,11.60
2019-05-10T01:31:20.270Z,11.70
2019-05-10T01:33:49.540Z,11.60
2019-05-10T01:36:20.199Z,11.70
2019-05-10T01:38:49.321Z,11.70
2019-05-10T01:41:18.488Z,11.70
2019-05-10T01:43:48.942Z,11.70
2019-05-10T01:46:18.135Z,11.60
2019-05-10T01:48:47.267Z,11.60
2019-05-10T01:51:16.471Z,11.70
2019-05-10T01:53:45.605Z,11.70
2019-05-10T01:56:14.799Z,11.70
2019-05-10T01:58:43.924Z,11.70
2019-05-10T02:01:13.076Z,11.60
2019-05-10T02:03:42.497Z,11.60
2019-05-10T02:06:12.252Z,11.50
2019-05-10T02:08:41.667Z,11.50
2019-05-10T02:11:10.863Z,11.50
2019-05-10T02:13:40.047Z,11.50
2019-05-10T02:16:09.496Z,11.50
2019-05-10T02:18:38.586Z,11.50
2019-05-10T02:21:07.804Z,11.50
2019-05-10T02:23:37.016Z,11.40
2019-05-10T02:26:09.661Z,11.50
2019-05-10T02:28:37.034Z,11.50
2019-05-10T02:31:06.246Z,11.50
2019-05-10T02:33:35.644Z,11.40
2019-05-10T02:36:05.183Z,11.50
2019-05-10T02:38:34.505Z,11.40
2019-05-10T02:41:03.658Z,11.40
2019-05-10T02:43:32.939Z,11.40
2019-05-10T02:46:02.222Z,11.40
2019-05-10T02:48:31.432Z,11.40
2019-05-10T02:51:00.531Z,11.40
2019-05-10T02:53:29.685Z,11.40
2019-05-10T02:55:59.717Z,11.30
2019-05-10T02:58:28.877Z,11.30
2019-05-10T03:01:01.136Z,11.30
2019-05-10T03:03:32.328Z,11.30
2019-05-10T03:06:03.335Z,11.20
2019-05-10T03:08:47.089Z,11.20
2019-05-10T03:11:16.762Z,11.20
2019-05-10T03:13:49.680Z,11.20
2019-05-10T03:16:22.021Z,11.20
2019-05-10T03:18:52.537Z,11.20
2019-05-10T03:21:23.677Z,11.20
2019-05-10T03:23:53.463Z,11.20
2019-05-10T03:26:22.786Z,11.20
2019-05-10T03:28:52.100Z,11.20
2019-05-10T03:31:21.712Z,11.20
2019-05-10T03:33:56.754Z,11.20
2019-05-10T03:36:21.801Z,11.30
2019-05-10T03:38:50.938Z,11.30
2019-05-10T03:41:20.137Z,11.20
2019-05-10T03:43:49.376Z,11.30
2019-05-10T03:46:18.585Z,11.30
2019-05-10T03:48:47.738Z,11.30
2019-05-10T03:51:17.284Z,11.20
2019-05-10T03:53:46.471Z,11.20
2019-05-10T03:56:15.682Z,11.20
2019-05-10T03:58:45.286Z,11.30
2019-05-10T04:01:14.524Z,11.30
2019-05-10T04:03:43.790Z,11.20
2019-05-10T04:06:13.255Z,11.20
2019-05-10T04:08:42.479Z,11.30
2019-05-10T04:11:30.780Z,11.30
2019-05-10T04:13:59.998Z,11.20
2019-05-10T04:16:30.734Z,11.20
2019-05-10T04:18:59.977Z,11.30
2019-05-10T04:21:29.261Z,11.30
2019-05-10T04:23:58.555Z,11.30
2019-05-10T04:26:27.768Z,11.30
2019-05-10T04:28:57.116Z,11.30
2019-05-10T04:31:26.288Z,11.30
2019-05-10T04:33:55.511Z,11.30
2019-05-10T04:36:24.938Z,11.40
2019-05-10T04:38:54.157Z,11.40
2019-05-10T04:41:23.330Z,11.40
2019-05-10T04:43:52.750Z,11.40
2019-05-10T04:46:21.959Z,11.30
2019-05-10T04:48:51.233Z,11.30
2019-05-10T04:51:20.492Z,11.20
2019-05-10T04:53:49.661Z,11.30
2019-05-10T04:56:18.878Z,11.30
2019-05-10T04:58:48.016Z,11.30
2019-05-10T05:01:17.176Z,11.30
2019-05-10T05:03:46.720Z,11.30
2019-05-10T05:06:16.186Z,11.30
2019-05-10T05:08:45.410Z,11.30
2019-05-10T05:11:14.716Z,11.20
2019-05-10T05:13:47.014Z,11.30
2019-05-10T05:16:16.647Z,11.40
2019-05-10T05:18:45.830Z,11.40
2019-05-10T05:21:15.238Z,11.40
2019-05-10T05:23:45.815Z,11.40
2019-05-10T05:26:15.097Z,11.50
2019-05-10T05:28:44.356Z,11.50
2019-05-10T05:31:13.588Z,11.60
2019-05-10T05:33:42.771Z,11.60
2019-05-10T05:36:12.071Z,11.70
2019-05-10T05:38:46.901Z,11.60
2019-05-10T05:41:12.362Z,11.60
2019-05-10T05:43:46.479Z,11.70
2019-05-10T05:46:14.557Z,11.70
2019-05-10T05:48:44.228Z,11.70
2019-05-10T05:51:13.780Z,11.70
2019-05-10T05:53:44.771Z,11.80
2019-05-10T05:56:16.063Z,11.90
2019-05-10T05:58:47.055Z,11.90
2019-05-10T06:01:26.013Z,11.90
2019-05-10T06:03:47.391Z,11.90
2019-05-10T06:06:21.732Z,11.80
2019-05-10T06:08:47.490Z,11.80
2019-05-10T06:11:16.772Z,11.80
2019-05-10T06:13:46.125Z,11.90
2019-05-10T06:16:15.357Z,12.10
2019-05-10T06:18:47.401Z,12.10
2019-05-10T06:21:23.582Z,12.10
2019-05-10T06:23:48.732Z,12.10
2019-05-10T06:26:26.546Z,12.10
2019-05-10T06:28:59.503Z,12.10
2019-05-10T06:31:19.975Z,12.20
2019-05-10T06:33:49.166Z,12.20
2019-05-10T06:36:18.684Z,12.40
2019-05-10T06:38:47.930Z,12.30
2019-05-10T06:41:19.078Z,12.30
2019-05-10T06:43:51.248Z,12.40
2019-05-10T06:46:23.745Z,12.40
2019-05-10T06:48:49.996Z,12.40
2019-05-10T06:51:19.280Z,12.40
2019-05-10T06:53:52.637Z,12.30
2019-05-10T06:56:19.586Z,12.30
2019-05-10T06:58:48.904Z,12.10
2019-05-10T07:01:18.196Z,12.20
2019-05-10T07:03:47.369Z,12.20
2019-05-10T07:06:16.648Z,12.20
2019-05-10T07:08:46.129Z,12.20
2019-05-10T07:11:15.546Z,12.20
2019-05-10T07:13:46.624Z,12.30
2019-05-10T07:16:24.040Z,12.30
2019-05-10T07:18:46.467Z,12.30
2019-05-10T07:21:15.611Z,12.30
2019-05-10T07:23:47.576Z,12.40
2019-05-10T07:26:17.536Z,12.40
2019-05-10T07:28:51.926Z,12.50
2019-05-10T07:31:23.324Z,12.50
2019-05-10T07:33:49.833Z,12.50
2019-05-10T07:36:24.938Z,12.50
2019-05-10T07:38:50.106Z,12.50
2019-05-10T07:41:26.177Z,12.60
2019-05-10T07:43:50.342Z,12.60
2019-05-10T07:46:20.619Z,12.60
2019-05-10T07:48:53.503Z,12.60
2019-05-10T07:51:22.975Z,12.70
2019-05-10T07:53:56.879Z,12.70
2019-05-10T07:56:22.883Z,12.80
2019-05-10T07:58:52.310Z,12.90
2019-05-10T08:01:29.058Z,12.80
2019-05-10T08:03:52.714Z,12.70
2019-05-10T08:06:22.074Z,12.80
2019-05-10T08:09:06.430Z,12.90
2019-05-10T08:11:33.492Z,12.90
2019-05-10T08:14:06.141Z,13.00
2019-05-10T08:16:34.064Z,13.00
2019-05-10T08:19:06.106Z,13.00
2019-05-10T08:21:35.362Z,13.00
2019-05-10T08:24:13.033Z,13.10
2019-05-10T08:26:36.071Z,13.00
2019-05-10T08:29:07.540Z,12.90
2019-05-10T08:31:40.615Z,12.90
2019-05-10T08:34:07.924Z,12.90
2019-05-10T08:36:42.677Z,12.80
2019-05-10T08:39:10.990Z,12.80
2019-05-10T08:41:39.035Z,12.90
2019-05-10T08:44:16.513Z,12.80
2019-05-10T08:46:41.351Z,12.90
2019-05-10T08:49:09.960Z,13.00
2019-05-10T08:51:47.973Z,12.90
2019-05-10T08:54:12.148Z,13.00
2019-05-10T08:56:46.391Z,13.10
2019-05-10T08:59:17.939Z,13.20
2019-05-10T09:01:46.519Z,13.30
2019-05-10T09:04:15.091Z,13.20
2019-05-10T09:06:47.468Z,13.30
2019-05-10T09:09:15.310Z,13.30
2019-05-10T09:11:44.936Z,13.50
2019-05-10T09:14:19.721Z,13.70
2019-05-10T09:16:56.381Z,13.70
2019-05-10T09:19:18.776Z,13.70
2019-05-10T09:21:49.774Z,13.70
2019-05-10T09:24:18.262Z,13.70
2019-05-10T09:26:54.862Z,13.80
2019-05-10T09:29:21.896Z,14.00
2019-05-10T09:31:53.449Z,14.10
2019-05-10T09:34:25.962Z,14.20
2019-05-10T09:36:53.291Z,14.10
2019-05-10T09:39:25.122Z,14.20
2019-05-10T09:41:53.462Z,14.10
2019-05-10T09:44:45.825Z,14.10
2019-05-10T09:47:14.456Z,14.30
2019-05-10T09:49:46.904Z,14.40
2019-05-10T09:52:18.476Z,14.40
2019-05-10T09:54:49.306Z,14.40
2019-05-10T09:57:17.481Z,14.30
2019-05-10T09:59:47.104Z,14.40
2019-05-10T10:02:18.927Z,14.40
2019-05-10T10:04:48.195Z,14.30
2019-05-10T10:07:18.990Z,14.20
2019-05-10T10:09:48.544Z,14.30
2019-05-10T10:12:17.844Z,14.30
2019-05-10T10:14:47.374Z,14.20
2019-05-10T10:17:18.356Z,14.10
2019-05-10T10:19:48.054Z,14.10
2019-05-10T10:22:19.840Z,14.10
2019-05-10T10:24:55.024Z,14.20
2019-05-10T10:27:20.124Z,14.30
2019-05-10T10:29:49.593Z,14.50
2019-05-10T10:32:18.903Z,14.50
2019-05-10T10:34:52.472Z,14.50
2019-05-10T10:37:22.149Z,14.50
2019-05-10T10:39:54.590Z,14.40
2019-05-10T10:42:22.778Z,14.50
2019-05-10T10:44:52.131Z,14.70
2019-05-10T10:47:40.610Z,14.80
2019-05-10T10:50:13.359Z,14.80
2019-05-10T10:52:41.026Z,14.90
2019-05-10T10:55:11.935Z,14.80
2019-05-10T10:57:41.410Z,14.80
2019-05-10T11:00:11.610Z,14.90
2019-05-10T11:02:41.811Z,15.00
2019-05-10T11:05:11.377Z,15.00
2019-05-10T11:07:44.284Z,15.00
2019-05-10T11:10:18.695Z,15.10
2019-05-10T11:12:42.847Z,15.00
2019-05-10T11:15:16.560Z,15.00
2019-05-10T11:17:42.984Z,15.00
2019-05-10T11:20:12.324Z,15.00
2019-05-10T11:22:49.006Z,15.10
2019-05-10T11:25:13.044Z,15.00
2019-05-10T11:27:42.631Z,15.10
2019-05-10T11:30:12.354Z,15.20
2019-05-10T11:32:42.058Z,15.20
2019-05-10T11:35:16.907Z,15.20
2019-05-10T11:37:45.504Z,15.10
2019-05-10T11:40:17.986Z,15.20
2019-05-10T11:42:47.414Z,15.30
2019-05-10T11:45:16.877Z,15.40
2019-05-10T11:47:47.960Z,15.50
2019-05-10T11:50:28.756Z,15.40
2019-05-10T11:52:51.070Z,15.40
2019-05-10T11:55:21.643Z,15.50
2019-05-10T11:58:01.521Z,15.50
2019-05-10T12:00:28.443Z,15.40
2019-05-10T12:03:06.915Z,15.30
2019-05-10T12:05:26.709Z,15.40
2019-05-10T12:07:55.316Z,15.40
2019-05-10T12:10:25.671Z,15.10
2019-05-10T12:13:08.745Z,15.40
2019-05-10T12:15:26.620Z,15.50
2019-05-10T12:17:59.557Z,15.50
2019-05-10T12:20:41.103Z,15.40
2019-05-10T12:22:57.773Z,15.40
2019-05-10T12:25:42.499Z,15.40
2019-05-10T12:27:58.101Z,15.50
2019-05-10T12:30:29.565Z,15.60
2019-05-10T12:33:08.813Z,15.60
2019-05-10T12:35:35.588Z,15.70
2019-05-10T12:38:01.673Z,15.60
2019-05-10T12:40:31.541Z,15.70
2019-05-10T12:43:00.858Z,16.00
2019-05-10T12:45:31.405Z,16.20
2019-05-10T12:48:01.427Z,16.30
2019-05-10T12:50:31.028Z,16.30
2019-05-10T12:53:07.575Z,16.30
2019-05-10T12:55:31.313Z,16.30
2019-05-10T12:58:00.739Z,16.20
2019-05-10T13:00:29.962Z,16.00
2019-05-10T13:03:11.688Z,16.10
2019-05-10T13:05:32.549Z,16.00
2019-05-10T13:08:01.113Z,16.00
2019-05-10T13:10:30.618Z,16.10
2019-05-10T13:13:00.271Z,16.10
2019-05-10T13:15:30.998Z,16.10
2019-05-10T13:18:00.652Z,16.20
2019-05-10T13:20:30.723Z,15.90
2019-05-10T13:23:00.880Z,16.10
2019-05-10T13:25:30.121Z,16.20
2019-05-10T13:27:59.159Z,16.20
2019-05-10T13:30:29.896Z,16.00
2019-05-10T13:33:00.390Z,16.00
2019-05-10T13:35:29.754Z,15.80
2019-05-10T13:38:04.130Z,15.80
2019-05-10T13:40:29.932Z,15.90
2019-05-10T13:42:59.128Z,15.70
2019-05-10T13:45:31.943Z,15.80
2019-05-10T13:47:59.247Z,15.70
2019-05-10T13:50:28.441Z,15.60
2019-05-10T13:52:57.839Z,15.50
2019-05-10T13:55:27.044Z,15.40
2019-05-10T13:57:56.256Z,15.30
2019-05-10T14:00:33.164Z,15.30
2019-05-10T14:02:57.005Z,15.40
2019-05-10T14:05:26.121Z,15.60
2019-05-10T14:07:56.437Z,15.80
2019-05-10T14:10:25.683Z,15.90
2019-05-10T14:12:56.021Z,15.90
2019-05-10T14:15:26.543Z,16.20
2019-05-10T14:17:55.934Z,16.20
2019-05-10T14:20:27.507Z,16.40
2019-05-10T14:22:58.703Z,16.70
2019-05-10T14:25:29.617Z,16.90
2019-05-10T14:27:58.576Z,17.20
2019-05-10T14:30:27.828Z,16.90
2019-05-10T14:32:57.334Z,16.60
2019-05-10T14:35:27.560Z,16.50
2019-05-10T14:38:06.929Z,16.50
2019-05-10T14:40:30.494Z,16.90
2019-05-10T14:42:59.065Z,16.80
2019-05-10T14:45:28.411Z,16.80
2019-05-10T14:47:57.674Z,17.10
2019-05-10T14:50:28.545Z,17.30
2019-05-10T14:52:57.881Z,17.40
2019-05-10T14:55:28.082Z,17.60
2019-05-10T14:57:57.993Z,17.60
2019-05-10T15:00:27.319Z,17.70
2019-05-10T15:03:01.910Z,17.80
2019-05-10T15:05:27.726Z,17.90
2019-05-10T15:07:56.959Z,17.90
2019-05-10T15:10:26.511Z,17.70
2019-05-10T15:12:55.673Z,17.70
2019-05-10T15:15:25.020Z,17.60
2019-05-10T15:18:02.187Z,17.80
2019-05-10T15:20:25.474Z,17.80
2019-05-10T15:22:54.604Z,17.90
2019-05-10T15:25:23.920Z,17.90
2019-05-10T15:27:54.639Z,17.90
2019-05-10T15:30:24.116Z,17.90
2019-05-10T15:32:53.400Z,17.80
2019-05-10T15:35:22.558Z,17.70
2019-05-10T15:37:51.910Z,17.60
2019-05-10T15:40:21.230Z,17.50
2019-05-10T15:42:50.359Z,17.50
2019-05-10T15:45:19.785Z,17.40
2019-05-10T15:47:51.577Z,17.20
2019-05-10T15:50:20.238Z,17.10
2019-05-10T15:52:49.622Z,17.10
2019-05-10T15:55:26.894Z,17.00
2019-05-10T15:57:51.718Z,17.10
2019-05-10T16:00:25.062Z,17.20
2019-05-10T16:02:53.432Z,17.10
2019-05-10T16:05:29.695Z,17.00
2019-05-10T16:07:53.852Z,16.80
2019-05-10T16:10:28.262Z,16.60
2019-05-10T16:12:54.251Z,16.50
2019-05-10T16:15:23.866Z,16.20
2019-05-10T16:17:53.739Z,16.10
2019-05-10T16:20:24.344Z,16.20
2019-05-10T16:22:53.846Z,16.10
2019-05-10T16:25:47.999Z,16.00
2019-05-10T16:28:15.587Z,15.80
2019-05-10T16:30:47.121Z,15.90
2019-05-10T16:33:18.223Z,15.90
2019-05-10T16:35:49.486Z,15.70
2019-05-10T16:38:18.493Z,15.50
2019-05-10T16:40:56.775Z,15.50
2019-05-10T16:43:23.912Z,15.50
2019-05-10T16:45:49.599Z,15.40
2019-05-10T16:48:18.908Z,15.40
2019-05-10T16:50:48.295Z,15.40
2019-05-10T16:53:17.533Z,15.40
2019-05-10T16:55:46.720Z,15.50
2019-05-10T16:58:17.964Z,15.40
2019-05-10T17:00:48.067Z,15.30
2019-05-10T17:03:18.215Z,15.30
2019-05-10T17:05:53.623Z,15.30
2019-05-10T17:08:19.621Z,15.30
2019-05-10T17:10:48.979Z,15.20
2019-05-10T17:13:18.278Z,15.10
2019-05-10T17:15:47.503Z,15.10
2019-05-10T17:18:19.680Z,15.20
2019-05-10T17:20:50.834Z,15.10
2019-05-10T17:23:18.610Z,15.10
2019-05-10T17:25:47.824Z,15.20
2019-05-10T17:28:17.079Z,15.20
2019-05-10T17:30:46.193Z,15.10
2019-05-10T17:33:15.694Z,15.00
2019-05-10T17:35:44.852Z,14.90
2019-05-10T17:38:16.089Z,15.00
2019-05-10T17:40:47.879Z,15.00
2019-05-10T17:43:20.490Z,14.90
2019-05-10T17:45:46.984Z,14.90
2019-05-10T17:48:16.354Z,14.80
2019-05-10T17:50:46.098Z,14.70
2019-05-10T17:53:15.614Z,14.70
2019-05-10T17:55:49.368Z,14.60
2019-05-10T17:58:17.225Z,14.50
2019-05-10T18:00:47.024Z,14.50
2019-05-10T18:03:16.227Z,14.40
2019-05-10T18:05:46.680Z,14.40
2019-05-10T18:08:16.420Z,14.30
2019-05-10T18:10:45.633Z,14.30
2019-05-10T18:13:14.988Z,14.20
2019-05-10T18:15:44.315Z,14.10
2019-05-10T18:18:13.457Z,14.00
2019-05-10T18:20:44.588Z,14.10
2019-05-10T18:23:20.356Z,14.20
2019-05-10T18:25:44.940Z,14.20
2019-05-10T18:28:17.752Z,14.20
2019-05-10T18:30:45.414Z,14.10
2019-05-10T18:33:14.753Z,14.00
2019-05-10T18:35:47.357Z,14.00
2019-05-10T18:38:24.828Z,14.00
2019-05-10T18:40:54.176Z,14.00
2019-05-10T18:43:23.411Z,13.90
2019-05-10T18:45:53.037Z,13.90
2019-05-10T18:48:22.302Z,13.90
2019-05-10T18:50:51.540Z,13.90
2019-05-10T18:53:27.175Z,13.80
2019-05-10T18:55:56.557Z,13.80
2019-05-10T18:58:29.529Z,13.80
2019-05-10T19:01:00.534Z,13.70
2019-05-10T19:03:33.450Z,13.60
2019-05-10T19:06:49.783Z,13.60
2019-05-10T19:08:54.994Z,13.60
2019-05-10T19:11:12.108Z,13.50
2019-05-10T19:13:48.028Z,13.40
2019-05-10T19:16:12.491Z,13.40
2019-05-10T19:18:56.081Z,13.30
2019-05-10T19:21:25.051Z,13.30
2019-05-10T19:23:54.254Z,13.20
2019-05-10T19:26:28.914Z,13.20
2019-05-10T19:28:59.067Z,13.10
2019-05-10T19:31:25.379Z,13.10
2019-05-10T19:33:54.899Z,13.20
2019-05-10T19:36:24.088Z,13.10
2019-05-10T19:38:53.607Z,13.10
2019-05-10T19:41:25.550Z,13.00
2019-05-10T19:43:56.007Z,13.00
2019-05-10T19:46:30.134Z,13.00
2019-05-10T19:48:56.654Z,13.00
2019-05-10T19:51:27.464Z,13.00
2019-05-10T19:53:56.732Z,13.00
2019-05-10T19:56:36.936Z,12.90
2019-05-10T19:59:10.911Z,12.90
2019-05-10T20:01:36.087Z,12.90
2019-05-10T20:04:08.804Z,12.90
2019-05-10T20:06:36.378Z,12.80
2019-05-10T20:09:07.297Z,12.70
2019-05-10T20:11:38.460Z,12.70
2019-05-10T20:14:08.020Z,12.80
2019-05-10T20:16:51.552Z,12.70
2019-05-10T20:19:09.321Z,12.60
2019-05-10T20:21:39.006Z,12.60
2019-05-10T20:24:08.254Z,12.60
2019-05-10T20:26:37.604Z,12.60
2019-05-10T20:29:06.752Z,12.50
2019-05-10T20:31:36.097Z,12.50
2019-05-10T20:34:05.394Z,12.50
2019-05-10T20:36:34.668Z,12.50
2019-05-10T20:39:06.840Z,12.40
2019-05-10T20:41:36.044Z,12.40
2019-05-10T20:44:06.812Z,12.30
2019-05-10T20:46:37.074Z,12.30
2019-05-10T20:49:06.442Z,12.30
2019-05-10T20:51:35.779Z,12.20
2019-05-10T20:54:05.129Z,12.10
2019-05-10T20:56:34.267Z,12.20
2019-05-10T20:59:03.476Z,12.10
2019-05-10T21:01:45.353Z,12.00
2019-05-10T21:04:14.495Z,12.00
2019-05-10T21:06:45.014Z,12.00
2019-05-10T21:09:14.359Z,12.00
2019-05-10T21:11:43.652Z,11.90
2019-05-10T21:14:13.919Z,11.90
2019-05-10T21:16:43.178Z,11.80
2019-05-10T21:19:12.703Z,11.90
2019-05-10T21:21:42.216Z,11.80
2019-05-10T21:24:11.529Z,11.80
2019-05-10T21:26:40.871Z,11.80
2019-05-10T21:29:10.056Z,11.80
2019-05-10T21:31:39.161Z,11.80
2019-05-10T21:34:10.134Z,11.80
2019-05-10T21:36:39.513Z,11.80
2019-05-10T21:39:08.780Z,11.70
2019-05-10T21:41:38.135Z,11.80
2019-05-10T21:44:07.556Z,11.70
2019-05-10T21:46:36.915Z,11.70
2019-05-10T21:49:06.271Z,11.70
2019-05-10T21:51:35.468Z,11.70
2019-05-10T21:54:04.869Z,11.60
2019-05-10T21:56:36.198Z,11.60
2019-05-10T21:59:05.371Z,11.50
2019-05-10T22:01:34.688Z,11.50
2019-05-10T22:04:04.778Z,11.50
2019-05-10T22:06:34.052Z,11.50
2019-05-10T22:09:04.570Z,11.40
2019-05-10T22:11:33.949Z,11.30
2019-05-10T22:14:03.160Z,11.40
2019-05-10T22:16:32.477Z,11.40
2019-05-10T22:19:05.159Z,11.40
2019-05-10T22:21:35.092Z,11.40
2019-05-10T22:24:04.434Z,11.30
2019-05-10T22:26:33.695Z,11.30
2019-05-10T22:29:03.177Z,11.30
2019-05-10T22:31:32.403Z,11.30
2019-05-10T22:34:01.799Z,11.30
2019-05-10T22:36:31.101Z,11.30
2019-05-10T22:39:07.265Z,11.30
2019-05-10T22:41:31.304Z,11.30
2019-05-10T22:44:00.604Z,11.30
2019-05-10T22:46:29.793Z,11.30
2019-05-10T22:48:59.044Z,11.30
2019-05-10T22:51:28.400Z,11.20
2019-05-10T22:54:00.033Z,11.20
2019-05-10T22:56:28.347Z,11.20
2019-05-10T22:58:57.456Z,11.20
2019-05-10T23:01:26.604Z,11.20
2019-05-10T23:04:14.848Z,11.10
2019-05-10T23:06:44.094Z,11.10
2019-05-10T23:09:24.104Z,11.10
2019-05-10T23:11:44.296Z,11.10
2019-05-10T23:14:13.498Z,11.00
2019-05-10T23:16:42.716Z,11.00
2019-05-10T23:19:12.054Z,10.90
2019-05-10T23:21:41.253Z,10.90
2019-05-10T23:24:12.275Z,10.90
2019-05-10T23:26:41.432Z,10.90
2019-05-10T23:29:10.712Z,10.90
2019-05-10T23:31:39.913Z,10.80
2019-05-10T23:34:09.188Z,10.70
2019-05-10T23:36:38.512Z,10.70
2019-05-10T23:39:09.460Z,10.60
2019-05-10T23:41:38.952Z,10.60
2019-05-10T23:44:08.409Z,10.70
2019-05-10T23:46:37.788Z,10.60
2019-05-10T23:49:10.576Z,10.50
2019-05-10T23:51:39.980Z,10.60
2019-05-10T23:54:27.561Z,10.50
2019-05-10T23:56:58.255Z,10.50
2019-05-10T23:59:28.447Z,10.50
